Nuangola, Pennsylvania
Current Conditions -  °F | °C
As of 11:15 AM on Monday 26 Jan 2015 (Local Time) from KHZL Reporting Station
Overcast Overcast  
Wind Chill: 10°   Ceiling: 1800
Heat Index: 21°   Visibility: 10mi
Dew Point: 14°   Wind: 10mph
Humidity: 74%   Direction: 100°E
Pressure: 29.83"   Gusts: NA
Location:  41.125°N, 75.9568°W
Report Text: KHZL 261615Z AUTO 10009KT 060V150 10SM OVC018 M06/M10 A2983 RMK AO2 LTG DSNT SE
Loading
Personal Weather Stations






























Interactive Weather Map New forecast layout! Learn more

10-Day Weather Forecast

Advertisements
Track Severe Weather on mobile